createdAt,value
2023-03-12T00:00:11.449Z,97337.63
2023-03-12T00:02:39.064Z,97337.31
2023-03-12T00:05:07.019Z,97335.00
2023-03-12T00:07:36.671Z,97329.97
2023-03-12T00:10:08.017Z,97334.38
2023-03-12T00:12:35.713Z,97328.66
2023-03-12T00:15:03.410Z,97329.78
2023-03-12T00:17:30.960Z,97340.09
2023-03-12T00:19:58.479Z,97341.72
2023-03-12T00:22:26.381Z,97345.81
2023-03-12T00:24:55.965Z,97341.59
2023-03-12T00:27:24.976Z,97346.63
2023-03-12T00:29:52.649Z,97343.50
2023-03-12T00:32:20.930Z,97348.59
2023-03-12T00:34:52.853Z,97351.53
2023-03-12T00:37:20.710Z,97354.28
2023-03-12T00:39:48.339Z,97355.63
2023-03-12T00:42:15.824Z,97355.25
2023-03-12T00:44:44.394Z,97353.16
2023-03-12T00:47:13.906Z,97353.81
2023-03-12T00:49:41.671Z,97358.84
2023-03-12T00:52:09.289Z,97357.91
2023-03-12T00:54:37.096Z,97351.03
2023-03-12T00:57:04.833Z,97347.59
2023-03-12T00:59:34.116Z,97349.91
2023-03-12T01:02:01.851Z,97347.16
2023-03-12T01:04:29.300Z,97355.94
2023-03-12T01:06:56.786Z,97344.00
2023-03-12T01:09:24.329Z,97344.69
2023-03-12T01:11:52.319Z,97346.47
2023-03-12T01:14:19.993Z,97338.97
2023-03-12T01:16:49.822Z,97341.41
2023-03-12T01:19:18.484Z,97348.09
2023-03-12T01:21:45.968Z,97347.63
2023-03-12T01:24:13.515Z,97355.16
2023-03-12T01:26:40.993Z,97355.63
2023-03-12T01:29:08.476Z,97353.31
2023-03-12T01:31:36.066Z,97357.25
2023-03-12T01:34:03.615Z,97367.03
2023-03-12T01:36:31.771Z,97358.53
2023-03-12T01:38:59.892Z,97358.72
2023-03-12T01:41:29.757Z,97358.72
2023-03-12T01:43:57.336Z,97363.44
2023-03-12T01:46:36.521Z,97365.22
2023-03-12T01:49:09.055Z,97359.84
2023-03-12T01:52:03.863Z,97361.00
2023-03-12T01:55:09.829Z,97362.81
2023-03-12T01:57:52.484Z,97362.94
2023-03-12T02:00:23.512Z,97369.16
2023-03-12T02:02:54.138Z,97365.56
2023-03-12T02:05:45.551Z,97375.88
2023-03-12T02:08:14.841Z,97368.97
2023-03-12T02:10:42.571Z,97369.47
2023-03-12T02:13:11.450Z,97365.91
2023-03-12T02:15:44.409Z,97365.38
2023-03-12T02:18:16.948Z,97375.34
2023-03-12T02:21:05.413Z,97370.88
2023-03-12T02:23:42.975Z,97370.88
2023-03-12T02:26:11.987Z,97382.00
2023-03-12T02:28:44.228Z,97373.13
2023-03-12T02:31:20.206Z,97373.81
2023-03-12T02:33:47.934Z,97379.34
2023-03-12T02:36:15.552Z,97372.50
2023-03-12T02:38:47.255Z,97376.41
2023-03-12T02:41:15.180Z,97374.63
2023-03-12T02:43:46.295Z,97378.72
2023-03-12T02:46:14.826Z,97378.88
2023-03-12T02:48:42.437Z,97382.31
2023-03-12T02:51:10.304Z,97384.25
2023-03-12T02:53:37.846Z,97388.47
2023-03-12T02:56:06.719Z,97390.78
2023-03-12T02:58:34.284Z,97391.94
2023-03-12T03:01:02.589Z,97385.06
2023-03-12T03:03:30.283Z,97389.97
2023-03-12T03:05:58.367Z,97389.38
2023-03-12T03:08:26.044Z,97390.19
2023-03-12T03:10:54.322Z,97395.41
2023-03-12T03:13:24.602Z,97388.28
2023-03-12T03:15:52.421Z,97391.03
2023-03-12T03:18:19.923Z,97389.56
2023-03-12T03:20:55.531Z,97391.84
2023-03-12T03:23:23.404Z,97396.03
2023-03-12T03:25:52.983Z,97399.31
2023-03-12T03:28:21.612Z,97398.50
2023-03-12T03:30:49.571Z,97401.75
2023-03-12T03:33:17.225Z,97407.91
2023-03-12T03:35:44.902Z,97409.38
2023-03-12T03:38:13.265Z,97413.28
2023-03-12T03:40:40.804Z,97414.09
2023-03-12T03:43:08.380Z,97424.03
2023-03-12T03:45:35.942Z,97424.34
2023-03-12T03:48:03.753Z,97427.25
2023-03-12T03:50:31.579Z,97434.25
2023-03-12T03:52:59.319Z,97430.84
2023-03-12T03:55:27.249Z,97435.38
2023-03-12T03:57:55.152Z,97438.16
2023-03-12T04:00:22.829Z,97444.50
2023-03-12T04:02:55.576Z,97444.81
2023-03-12T04:05:23.678Z,97439.75
2023-03-12T04:07:53.653Z,97439.75
2023-03-12T04:10:25.047Z,97439.75
2023-03-12T04:12:53.092Z,97435.50
2023-03-12T04:15:21.022Z,97441.16
2023-03-12T04:17:50.120Z,97435.31
2023-03-12T04:20:18.332Z,97435.94
2023-03-12T04:22:46.036Z,97438.94
2023-03-12T04:25:13.602Z,97430.78
2023-03-12T04:27:41.301Z,97435.19
2023-03-12T04:30:09.654Z,97432.28
2023-03-12T04:32:38.983Z,97431.50
2023-03-12T04:35:06.993Z,97431.66
2023-03-12T04:37:35.094Z,97424.19
2023-03-12T04:40:07.646Z,97424.03
2023-03-12T04:42:36.325Z,97424.19
2023-03-12T04:45:06.415Z,97418.66
2023-03-12T04:47:36.192Z,97416.75
2023-03-12T04:50:04.328Z,97425.88
2023-03-12T04:52:32.757Z,97431.28
2023-03-12T04:55:00.675Z,97434.69
2023-03-12T04:57:28.571Z,97435.50
2023-03-12T04:59:56.277Z,97433.41
2023-03-12T05:02:24.969Z,97425.25
2023-03-12T05:04:56.282Z,97430.69
2023-03-12T05:07:24.469Z,97439.78
2023-03-12T05:09:52.060Z,97446.00
2023-03-12T05:12:19.686Z,97439.78
2023-03-12T05:14:47.190Z,97444.81
2023-03-12T05:17:14.951Z,97450.91
2023-03-12T05:19:42.430Z,97448.31
2023-03-12T05:22:10.012Z,97446.03
2023-03-12T05:24:38.048Z,97443.44
2023-03-12T05:27:08.433Z,97440.53
2023-03-12T05:29:36.114Z,97444.97
2023-03-12T05:32:05.136Z,97447.56
2023-03-12T05:34:33.530Z,97452.06
2023-03-12T05:37:02.028Z,97444.28
2023-03-12T05:39:31.200Z,97442.31
2023-03-12T05:42:05.081Z,97444.34
2023-03-12T05:44:34.988Z,97449.66
2023-03-12T05:47:02.670Z,97445.31
2023-03-12T05:49:31.113Z,97444.72
2023-03-12T05:51:59.358Z,97434.78
2023-03-12T05:54:27.494Z,97439.16
2023-03-12T05:56:56.251Z,97442.41
2023-03-12T05:59:25.494Z,97450.09
2023-03-12T06:01:54.430Z,97443.88
2023-03-12T06:04:22.019Z,97455.13
2023-03-12T06:06:49.553Z,97452.81
2023-03-12T06:09:17.230Z,97450.75
2023-03-12T06:11:44.775Z,97449.66
2023-03-12T06:14:13.161Z,97447.38
2023-03-12T06:16:41.111Z,97444.78
2023-03-12T06:19:08.591Z,97444.59
2023-03-12T06:21:36.422Z,97437.50
2023-03-12T06:24:06.494Z,97444.78
2023-03-12T06:26:53.960Z,97439.38
2023-03-12T06:33:27.948Z,97437.50
2023-03-12T06:35:59.092Z,97442.34
2023-03-12T06:38:26.742Z,97438.78
2023-03-12T06:41:09.681Z,97438.38
2023-03-12T06:43:38.547Z,97435.47
2023-03-12T06:46:08.190Z,97445.81
2023-03-12T06:48:41.655Z,97437.78
2023-03-12T06:51:10.789Z,97440.19
2023-03-12T06:53:41.789Z,97439.78
2023-03-12T06:56:11.170Z,97435.88
2023-03-12T06:58:38.954Z,97444.38
2023-03-12T07:01:06.768Z,97439.78
2023-03-12T07:03:34.584Z,97449.56
2023-03-12T07:06:02.273Z,97441.78
2023-03-12T07:08:32.630Z,97442.63
2023-03-12T07:11:03.740Z,97440.06
2023-03-12T07:13:31.211Z,97440.63
2023-03-12T07:15:58.739Z,97438.91
2023-03-12T07:18:26.796Z,97446.22
2023-03-12T07:20:54.735Z,97446.22
2023-03-12T07:23:23.557Z,97447.09
2023-03-12T07:25:51.957Z,97446.00
2023-03-12T07:28:20.193Z,97445.13
2023-03-12T07:30:50.825Z,97448.19
2023-03-12T07:33:20.684Z,97451.47
2023-03-12T07:35:51.460Z,97452.72
2023-03-12T07:38:19.547Z,97450.50
2023-03-12T07:40:58.317Z,97456.78
2023-03-12T07:43:26.531Z,97453.44
2023-03-12T07:45:55.480Z,97447.31
2023-03-12T07:48:23.099Z,97452.97
2023-03-12T07:50:50.966Z,97453.97
2023-03-12T07:53:18.966Z,97451.81
2023-03-12T07:55:48.148Z,97454.47
2023-03-12T07:58:16.980Z,97452.63
2023-03-12T08:00:45.152Z,97449.94
2023-03-12T08:03:13.669Z,97449.16
2023-03-12T08:05:41.711Z,97458.22
2023-03-12T08:08:09.935Z,97457.47
2023-03-12T08:10:37.608Z,97463.97
2023-03-12T08:13:05.243Z,97467.00
2023-03-12T08:15:33.613Z,97467.78
2023-03-12T08:18:01.608Z,97470.72
2023-03-12T08:20:29.413Z,97461.69
2023-03-12T08:22:56.949Z,97462.44
2023-03-12T08:25:25.023Z,97459.41
2023-03-12T08:27:53.118Z,97465.63
2023-03-12T08:30:21.088Z,97468.34
2023-03-12T08:32:48.643Z,97460.22
2023-03-12T08:35:16.130Z,97471.63
2023-03-12T08:37:43.664Z,97463.84
2023-03-12T08:40:14.573Z,97472.25
2023-03-12T08:42:44.313Z,97477.25
2023-03-12T08:45:12.980Z,97476.66
2023-03-12T08:47:41.903Z,97471.38
2023-03-12T08:50:14.064Z,97474.84
2023-03-12T08:52:41.930Z,97478.69
2023-03-12T08:55:11.352Z,97464.97
2023-03-12T08:57:38.971Z,97468.41
2023-03-12T09:00:11.510Z,97461.38
2023-03-12T09:02:39.293Z,97462.16
2023-03-12T09:05:07.623Z,97458.75
2023-03-12T09:07:35.246Z,97462.13
2023-03-12T09:10:02.745Z,97457.25
2023-03-12T09:12:30.205Z,97461.84
2023-03-12T09:15:03.346Z,97454.09
2023-03-12T09:17:31.438Z,97453.47
2023-03-12T09:19:58.675Z,97463.19
2023-03-12T09:22:25.965Z,97459.94
2023-03-12T09:24:53.091Z,97453.72
2023-03-12T09:27:20.453Z,97451.50
2023-03-12T09:29:59.656Z,97450.22
2023-03-12T09:32:28.116Z,97450.50
2023-03-12T09:34:55.301Z,97445.09
2023-03-12T09:37:24.328Z,97440.84
2023-03-12T09:39:52.017Z,97433.31
2023-03-12T09:42:26.925Z,97446.44
2023-03-12T09:44:57.280Z,97437.09
2023-03-12T09:47:41.527Z,97437.59
2023-03-12T09:50:23.301Z,97433.25
2023-03-12T09:52:55.721Z,97434.19
2023-03-12T09:55:23.444Z,97438.31
2023-03-12T09:57:51.856Z,97436.25
2023-03-12T10:00:23.475Z,97441.56
2023-03-12T10:03:08.869Z,97441.00
2023-03-12T10:05:54.540Z,97425.53
2023-03-12T10:08:26.909Z,97428.28
2023-03-12T10:11:01.492Z,97437.75
2023-03-12T10:13:32.303Z,97435.25
2023-03-12T10:16:06.071Z,97425.63
2023-03-12T10:18:36.469Z,97414.91
2023-03-12T10:21:07.708Z,97408.53
2023-03-12T10:23:41.680Z,97409.19
2023-03-12T10:26:19.297Z,97407.72
2023-03-12T10:28:50.161Z,97409.19
2023-03-12T10:31:24.139Z,97409.88
2023-03-12T10:33:54.801Z,97405.00
2023-03-12T10:36:40.694Z,97402.16
2023-03-12T10:39:18.315Z,97401.41
2023-03-12T10:41:46.849Z,97403.28
2023-03-12T10:44:20.147Z,97400.97
2023-03-12T10:46:59.955Z,97391.34
2023-03-12T10:50:35.690Z,97384.50
2023-03-12T10:53:21.416Z,97383.13
2023-03-12T10:56:13.359Z,97383.38
2023-03-12T10:58:47.323Z,97384.56
2023-03-12T11:01:24.843Z,97376.59
2023-03-12T11:03:54.432Z,97381.72
2023-03-12T11:06:26.746Z,97385.34
2023-03-12T11:09:20.558Z,97384.44
2023-03-12T11:11:49.943Z,97375.69
2023-03-12T11:14:29.405Z,97381.28
2023-03-12T11:16:57.510Z,97374.38
2023-03-12T11:19:33.981Z,97373.34
2023-03-12T11:22:08.373Z,97361.88
2023-03-12T11:24:36.219Z,97367.31
2023-03-12T11:27:20.550Z,97364.84
2023-03-12T11:29:50.678Z,97353.28
2023-03-12T11:32:24.904Z,97361.75
2023-03-12T11:34:53.309Z,97360.25
2023-03-12T11:38:16.194Z,97354.59
2023-03-12T11:40:56.727Z,97352.75
2023-03-12T11:44:02.176Z,97353.09
2023-03-12T11:46:56.818Z,97352.06
2023-03-12T11:49:44.963Z,97345.16
2023-03-12T11:52:34.041Z,97340.72
2023-03-12T11:55:16.504Z,97330.00
2023-03-12T11:58:00.752Z,97316.47
2023-03-12T12:00:48.007Z,97319.44
2023-03-12T12:03:30.846Z,97323.59
2023-03-12T12:06:10.273Z,97330.44
2023-03-12T12:09:32.457Z,97314.13
2023-03-12T12:12:31.848Z,97291.44
2023-03-12T12:15:17.494Z,97286.63
2023-03-12T12:17:58.821Z,97279.63
2023-03-12T12:20:34.739Z,97276.00
2023-03-12T12:23:23.680Z,97269.91
2023-03-12T12:26:05.872Z,97273.28
2023-03-12T12:28:54.106Z,97266.22
2023-03-12T12:31:24.646Z,97263.66
2023-03-12T12:34:17.049Z,97269.09
2023-03-12T12:36:51.615Z,97258.69
2023-03-12T12:39:32.605Z,97264.00
2023-03-12T12:42:06.230Z,97251.56
2023-03-12T12:44:50.343Z,97253.19
2023-03-12T12:47:32.927Z,97245.09
2023-03-12T12:50:01.545Z,97249.16
2023-03-12T12:52:29.290Z,97232.59
2023-03-12T12:55:28.379Z,97236.56
2023-03-12T12:58:05.064Z,97236.88
2023-03-12T13:00:45.765Z,97226.09
2023-03-12T13:03:22.385Z,97226.72
2023-03-12T13:05:52.643Z,97229.41
2023-03-12T13:08:44.606Z,97227.44
2023-03-12T13:11:18.666Z,97225.50
2023-03-12T13:14:12.083Z,97210.19
2023-03-12T13:16:47.693Z,97208.03
2023-03-12T13:19:15.177Z,97218.31
2023-03-12T13:21:54.524Z,97214.69
2023-03-12T13:24:32.284Z,97222.91
2023-03-12T13:27:25.887Z,97211.28
2023-03-12T13:29:59.516Z,97207.13
2023-03-12T13:33:03.316Z,97205.41
2023-03-12T13:35:36.632Z,97214.88
2023-03-12T13:38:07.528Z,97212.47
2023-03-12T13:40:37.438Z,97219.22
2023-03-12T13:43:17.051Z,97210.59
2023-03-12T13:46:07.144Z,97213.16
2023-03-12T13:48:36.257Z,97212.69
2023-03-12T13:51:15.505Z,97213.38
2023-03-12T13:53:48.956Z,97210.16
2023-03-12T13:56:25.615Z,97197.75
2023-03-12T13:59:00.785Z,97217.91
2023-03-12T14:01:50.858Z,97217.25
2023-03-12T14:04:22.464Z,97225.13
2023-03-12T14:07:24.321Z,97224.81
2023-03-12T14:10:26.674Z,97228.66
2023-03-12T14:13:24.554Z,97225.78
2023-03-12T14:16:10.990Z,97225.81
2023-03-12T14:18:40.503Z,97242.59
2023-03-12T14:21:13.351Z,97235.00
2023-03-12T14:23:47.043Z,97233.41
2023-03-12T14:26:21.916Z,97238.16
2023-03-12T14:29:00.715Z,97224.94
2023-03-12T14:31:31.060Z,97227.06
2023-03-12T14:34:00.741Z,97234.78
2023-03-12T14:36:37.582Z,97228.13
2023-03-12T14:39:25.274Z,97208.69
2023-03-12T14:42:10.963Z,97211.56
2023-03-12T14:44:39.814Z,97211.44
2023-03-12T14:47:13.117Z,97209.19
2023-03-12T14:49:45.941Z,97208.59
2023-03-12T14:52:25.820Z,97198.38
2023-03-12T14:55:07.904Z,97192.25
2023-03-12T14:57:35.403Z,97186.41
2023-03-12T15:00:03.071Z,97176.44
2023-03-12T15:02:31.912Z,97165.84
2023-03-12T15:05:01.782Z,97161.03
2023-03-12T15:07:34.896Z,97160.91
2023-03-12T15:10:07.134Z,97157.25
2023-03-12T15:12:37.358Z,97156.22
2023-03-12T15:15:11.468Z,97155.84
2023-03-12T15:17:39.074Z,97146.94
2023-03-12T15:20:09.519Z,97140.63
2023-03-12T15:22:37.955Z,97128.28
2023-03-12T15:25:25.343Z,97135.78
2023-03-12T15:28:15.807Z,97126.47
2023-03-12T15:30:43.962Z,97127.50
2023-03-12T15:33:13.106Z,97126.66
2023-03-12T15:36:06.611Z,97121.38
2023-03-12T15:38:38.418Z,97118.94
2023-03-12T15:41:12.194Z,97109.59
2023-03-12T15:43:43.984Z,97093.38
2023-03-12T15:46:12.554Z,97091.53
2023-03-12T15:48:41.428Z,97095.38
2023-03-12T15:51:26.744Z,97083.78
2023-03-12T15:54:25.200Z,97068.13
2023-03-12T15:56:52.793Z,97072.38
2023-03-12T15:59:25.171Z,97067.69
2023-03-12T16:01:55.267Z,97084.34
2023-03-12T16:04:24.738Z,97084.75
2023-03-12T16:06:53.574Z,97084.09
2023-03-12T16:09:26.516Z,97076.59
2023-03-12T16:11:55.652Z,97073.13
2023-03-12T16:14:27.437Z,97081.28
2023-03-12T16:16:55.059Z,97086.38
2023-03-12T16:19:23.803Z,97077.03
2023-03-12T16:21:51.472Z,97074.81
2023-03-12T16:24:18.919Z,97074.97
2023-03-12T16:27:00.044Z,97083.50
2023-03-12T16:29:33.566Z,97066.47
2023-03-12T16:32:01.522Z,97068.53
2023-03-12T16:34:29.220Z,97063.44
2023-03-12T16:36:56.890Z,97077.44
2023-03-12T16:39:24.283Z,97075.63
2023-03-12T16:41:51.733Z,97073.03
2023-03-12T16:44:21.164Z,97083.13
2023-03-12T16:46:48.731Z,97076.88
2023-03-12T16:49:18.162Z,97088.63
2023-03-12T16:51:45.697Z,97099.81
2023-03-12T16:54:13.295Z,97085.16
2023-03-12T16:56:46.464Z,97077.84
2023-03-12T16:59:26.019Z,97077.03
2023-03-12T17:01:53.784Z,97090.06
2023-03-12T17:04:21.222Z,97089.81
2023-03-12T17:06:48.694Z,97082.06
2023-03-12T17:09:16.152Z,97068.66
2023-03-12T17:11:43.810Z,97076.56
2023-03-12T17:14:20.620Z,97083.47
2023-03-12T17:16:48.544Z,97077.72
2023-03-12T17:19:16.156Z,97080.16
2023-03-12T17:21:44.407Z,97072.22
2023-03-12T17:24:14.179Z,97092.50
2023-03-12T17:26:43.086Z,97091.47
2023-03-12T17:29:10.584Z,97108.53
2023-03-12T17:31:38.237Z,97098.56
2023-03-12T17:34:05.863Z,97100.19
2023-03-12T17:36:36.894Z,97103.25
2023-03-12T17:39:04.622Z,97105.69
2023-03-12T17:41:33.419Z,97101.38
2023-03-12T17:44:02.287Z,97108.09
2023-03-12T17:46:31.167Z,97095.28
2023-03-12T17:48:59.012Z,97092.84
2023-03-12T17:51:26.431Z,97079.63
2023-03-12T17:53:54.040Z,97091.38
2023-03-12T17:56:21.510Z,97087.50
2023-03-12T17:58:49.086Z,97083.41
2023-03-12T18:01:17.154Z,97100.31
2023-03-12T18:03:44.745Z,97102.28
2023-03-12T18:06:12.449Z,97100.88
2023-03-12T18:08:39.964Z,97114.31
2023-03-12T18:11:07.463Z,97105.06
2023-03-12T18:13:34.967Z,97101.56
2023-03-12T18:16:02.466Z,97095.25
2023-03-12T18:18:30.020Z,97088.34
2023-03-12T18:20:57.486Z,97089.56
2023-03-12T18:23:26.165Z,97093.16
2023-03-12T18:25:53.602Z,97103.50
2023-03-12T18:28:21.179Z,97106.94
2023-03-12T18:30:48.944Z,97111.81
2023-03-12T18:33:17.117Z,97110.56
2023-03-12T18:35:44.912Z,97116.09
2023-03-12T18:38:12.903Z,97110.78
2023-03-12T18:40:40.399Z,97111.00
2023-03-12T18:43:07.997Z,97115.22
2023-03-12T18:45:35.523Z,97120.28
2023-03-12T18:48:02.976Z,97112.97
2023-03-12T18:50:30.364Z,97114.56
2023-03-12T18:52:57.899Z,97116.41
2023-03-12T18:55:25.512Z,97120.22
2023-03-12T18:57:53.116Z,97116.56
2023-03-12T19:00:20.834Z,97123.03
2023-03-12T19:02:48.713Z,97118.00
2023-03-12T19:05:16.969Z,97123.66
2023-03-12T19:07:44.717Z,97116.28
2023-03-12T19:10:13.309Z,97122.63
2023-03-12T19:12:54.848Z,97113.28
2023-03-12T19:15:24.337Z,97110.00
2023-03-12T19:17:53.050Z,97121.16
2023-03-12T19:20:21.461Z,97120.72
2023-03-12T19:22:48.873Z,97120.50
2023-03-12T19:25:16.365Z,97133.50
2023-03-12T19:27:43.786Z,97142.06
2023-03-12T19:30:11.966Z,97142.50
2023-03-12T19:32:44.301Z,97138.59
2023-03-12T19:35:13.728Z,97135.78
2023-03-12T19:37:41.959Z,97143.09
2023-03-12T19:40:10.882Z,97133.50
2023-03-12T19:42:38.448Z,97128.81
2023-03-12T19:45:06.518Z,97130.00
2023-03-12T19:47:34.048Z,97125.31
2023-03-12T19:50:01.572Z,97129.56
2023-03-12T19:52:30.142Z,97124.94
2023-03-12T19:55:04.604Z,97126.56
2023-03-12T19:57:34.249Z,97122.88
2023-03-12T20:00:02.244Z,97131.16
2023-03-12T20:02:31.801Z,97127.09
2023-03-12T20:04:59.390Z,97129.38
2023-03-12T20:07:26.997Z,97131.22
2023-03-12T20:09:54.464Z,97139.59
2023-03-12T20:12:22.039Z,97143.22
2023-03-12T20:14:49.582Z,97149.75
2023-03-12T20:17:17.382Z,97161.56
2023-03-12T20:19:44.825Z,97156.84
2023-03-12T20:22:12.385Z,97149.31
2023-03-12T20:24:39.930Z,97148.47
2023-03-12T20:27:07.468Z,97152.13
2023-03-12T20:29:35.168Z,97153.31
2023-03-12T20:32:02.666Z,97152.09
2023-03-12T20:34:30.155Z,97155.53
2023-03-12T20:36:58.514Z,97155.66
2023-03-12T20:39:25.990Z,97159.53
2023-03-12T20:41:53.534Z,97151.34
2023-03-12T20:44:21.121Z,97145.03
2023-03-12T20:46:48.910Z,97136.78
2023-03-12T20:49:16.444Z,97134.16
2023-03-12T20:51:44.748Z,97136.97
2023-03-12T20:54:12.527Z,97142.47
2023-03-12T20:56:43.885Z,97148.97
2023-03-12T20:59:12.326Z,97149.31
2023-03-12T21:01:39.914Z,97149.25
2023-03-12T21:04:07.484Z,97160.44
2023-03-12T21:06:35.056Z,97150.81
2023-03-12T21:09:03.134Z,97144.63
2023-03-12T21:11:31.541Z,97143.22
2023-03-12T21:13:59.163Z,97149.53
2023-03-12T21:16:26.722Z,97148.25
2023-03-12T21:18:58.263Z,97155.00
2023-03-12T21:21:25.985Z,97146.44
2023-03-12T21:23:53.439Z,97140.94
2023-03-12T21:26:20.986Z,97153.47
2023-03-12T21:28:48.435Z,97145.06
2023-03-12T21:31:17.450Z,97148.28
2023-03-12T21:33:45.193Z,97145.19
2023-03-12T21:36:14.458Z,97146.03
2023-03-12T21:38:45.576Z,97138.09
2023-03-12T21:41:15.288Z,97143.50
2023-03-12T21:43:43.893Z,97134.56
2023-03-12T21:46:24.886Z,97142.41
2023-03-12T21:48:52.593Z,97144.28
2023-03-12T21:51:20.355Z,97135.72
2023-03-12T21:53:47.887Z,97134.69
2023-03-12T21:56:15.453Z,97136.31
2023-03-12T21:58:45.494Z,97130.78
2023-03-12T22:01:15.403Z,97137.56
2023-03-12T22:03:44.761Z,97124.22
2023-03-12T22:06:13.847Z,97122.19
2023-03-12T22:08:42.494Z,97119.28
2023-03-12T22:11:10.432Z,97115.84
2023-03-12T22:13:37.954Z,97115.84
2023-03-12T22:16:08.340Z,97108.09
2023-03-12T22:18:40.985Z,97113.41
2023-03-12T22:21:16.634Z,97120.63
2023-03-12T22:23:44.849Z,97120.34
2023-03-12T22:26:12.274Z,97114.22
2023-03-12T22:28:40.203Z,97111.34
2023-03-12T22:31:09.091Z,97121.94
2023-03-12T22:33:36.869Z,97111.03
2023-03-12T22:36:10.991Z,97101.38
2023-03-12T22:38:40.001Z,97093.91
2023-03-12T22:41:22.329Z,97087.59
2023-03-12T22:43:52.799Z,97098.56
2023-03-12T22:46:22.725Z,97086.91
2023-03-12T22:48:56.145Z,97081.16
2023-03-12T22:51:24.738Z,97085.66
2023-03-12T22:53:53.855Z,97081.38
2023-03-12T22:56:21.748Z,97092.78
2023-03-12T22:58:49.465Z,97093.00
2023-03-12T23:01:21.842Z,97095.09
2023-03-12T23:03:50.484Z,97092.66
2023-03-12T23:06:20.905Z,97087.00
2023-03-12T23:08:48.981Z,97088.84
2023-03-12T23:11:17.269Z,97092.09
2023-03-12T23:13:45.861Z,97083.31
2023-03-12T23:16:19.499Z,97097.28
2023-03-12T23:18:47.305Z,97092.56
2023-03-12T23:21:20.775Z,97098.44
2023-03-12T23:23:49.050Z,97091.75
2023-03-12T23:26:27.627Z,97095.59
2023-03-12T23:28:57.429Z,97094.53
2023-03-12T23:31:25.366Z,97090.03
2023-03-12T23:33:53.006Z,97090.50
2023-03-12T23:36:22.624Z,97095.69
2023-03-12T23:38:50.657Z,97089.50
2023-03-12T23:41:21.044Z,97091.13
2023-03-12T23:43:49.114Z,97081.09
2023-03-12T23:46:20.213Z,97090.88
2023-03-12T23:48:48.115Z,97082.59
2023-03-12T23:51:18.389Z,97085.38
2023-03-12T23:53:48.211Z,97076.72
2023-03-12T23:56:19.255Z,97072.47
2023-03-12T23:58:47.808Z,97077.66
